sensor_id;sensor_type;location;lat;lon;timestamp;P1;durP1;ratioP1;P2;durP2;ratioP2
12788;SDS011;6458;42.710;23.192;2023-11-21T00:00:01;25.37;;;18.90;;
12788;SDS011;6458;42.710;23.192;2023-11-21T00:02:35;24.40;;;18.43;;
12788;SDS011;6458;42.710;23.192;2023-11-21T00:05:05;23.23;;;17.60;;
12788;SDS011;6458;42.710;23.192;2023-11-21T00:07:33;25.37;;;16.57;;
12788;SDS011;6458;42.710;23.192;2023-11-21T00:10:00;20.60;;;17.10;;
12788;SDS011;6458;42.710;23.192;2023-11-21T00:12:28;19.17;;;15.73;;
12788;SDS011;6458;42.710;23.192;2023-11-21T00:14:55;23.23;;;17.20;;
12788;SDS011;6458;42.710;23.192;2023-11-21T00:17:22;22.70;;;15.77;;
12788;SDS011;6458;42.710;23.192;2023-11-21T00:19:49;24.60;;;17.23;;
12788;SDS011;6458;42.710;23.192;2023-11-21T00:22:18;23.23;;;16.80;;
12788;SDS011;6458;42.710;23.192;2023-11-21T00:24:46;25.70;;;17.10;;
12788;SDS011;6458;42.710;23.192;2023-11-21T00:27:13;21.07;;;16.47;;
12788;SDS011;6458;42.710;23.192;2023-11-21T00:29:40;20.73;;;15.63;;
12788;SDS011;6458;42.710;23.192;2023-11-21T00:32:07;24.20;;;16.13;;
12788;SDS011;6458;42.710;23.192;2023-11-21T00:34:35;23.43;;;17.57;;
12788;SDS011;6458;42.710;23.192;2023-11-21T00:37:02;23.53;;;17.23;;
12788;SDS011;6458;42.710;23.192;2023-11-21T00:39:31;21.03;;;15.50;;
12788;SDS011;6458;42.710;23.192;2023-11-21T00:41:58;19.93;;;15.37;;
12788;SDS011;6458;42.710;23.192;2023-11-21T00:44:25;19.80;;;16.90;;
12788;SDS011;6458;42.710;23.192;2023-11-21T00:46:51;22.73;;;16.90;;
12788;SDS011;6458;42.710;23.192;2023-11-21T00:49:19;23.13;;;16.00;;
12788;SDS011;6458;42.710;23.192;2023-11-21T00:51:47;20.50;;;15.20;;
12788;SDS011;6458;42.710;23.192;2023-11-21T00:54:14;26.03;;;18.33;;
12788;SDS011;6458;42.710;23.192;2023-11-21T00:56:43;22.80;;;16.90;;
12788;SDS011;6458;42.710;23.192;2023-11-21T00:59:12;20.60;;;15.70;;
12788;SDS011;6458;42.710;23.192;2023-11-21T01:01:39;18.03;;;15.70;;
12788;SDS011;6458;42.710;23.192;2023-11-21T01:04:06;21.00;;;15.07;;
12788;SDS011;6458;42.710;23.192;2023-11-21T01:06:33;24.60;;;16.47;;
12788;SDS011;6458;42.710;23.192;2023-11-21T01:09:00;28.70;;;18.13;;
12788;SDS011;6458;42.710;23.192;2023-11-21T01:11:32;54.60;;;26.83;;
12788;SDS011;6458;42.710;23.192;2023-11-21T01:14:02;46.13;;;25.13;;
12788;SDS011;6458;42.710;23.192;2023-11-21T01:16:30;28.33;;;17.67;;
12788;SDS011;6458;42.710;23.192;2023-11-21T01:18:57;21.90;;;15.77;;
12788;SDS011;6458;42.710;23.192;2023-11-21T01:21:24;28.90;;;18.63;;
12788;SDS011;6458;42.710;23.192;2023-11-21T01:23:53;20.70;;;15.33;;
12788;SDS011;6458;42.710;23.192;2023-11-21T01:26:20;36.73;;;21.63;;
12788;SDS011;6458;42.710;23.192;2023-11-21T01:28:47;20.37;;;14.67;;
12788;SDS011;6458;42.710;23.192;2023-11-21T01:31:16;19.87;;;14.30;;
12788;SDS011;6458;42.710;23.192;2023-11-21T01:33:43;27.73;;;18.40;;
12788;SDS011;6458;42.710;23.192;2023-11-21T01:36:10;27.07;;;17.70;;
12788;SDS011;6458;42.710;23.192;2023-11-21T01:38:37;20.83;;;15.00;;
12788;SDS011;6458;42.710;23.192;2023-11-21T01:41:04;22.70;;;17.03;;
12788;SDS011;6458;42.710;23.192;2023-11-21T01:43:31;20.77;;;15.13;;
12788;SDS011;6458;42.710;23.192;2023-11-21T01:45:59;21.03;;;14.80;;
12788;SDS011;6458;42.710;23.192;2023-11-21T01:48:28;19.93;;;14.87;;
12788;SDS011;6458;42.710;23.192;2023-11-21T01:50:57;21.70;;;15.73;;
12788;SDS011;6458;42.710;23.192;2023-11-21T01:53:25;21.00;;;15.33;;
12788;SDS011;6458;42.710;23.192;2023-11-21T01:55:53;17.30;;;14.27;;
12788;SDS011;6458;42.710;23.192;2023-11-21T01:58:22;27.00;;;18.43;;
12788;SDS011;6458;42.710;23.192;2023-11-21T02:00:50;26.13;;;19.70;;
12788;SDS011;6458;42.710;23.192;2023-11-21T02:03:20;22.83;;;16.77;;
12788;SDS011;6458;42.710;23.192;2023-11-21T02:05:48;21.23;;;16.07;;
12788;SDS011;6458;42.710;23.192;2023-11-21T02:08:15;20.00;;;14.13;;
12788;SDS011;6458;42.710;23.192;2023-11-21T02:10:44;22.77;;;15.97;;
12788;SDS011;6458;42.710;23.192;2023-11-21T02:13:12;33.70;;;20.00;;
12788;SDS011;6458;42.710;23.192;2023-11-21T02:15:41;24.80;;;18.43;;
12788;SDS011;6458;42.710;23.192;2023-11-21T02:18:08;21.60;;;17.10;;
12788;SDS011;6458;42.710;23.192;2023-11-21T02:20:36;22.17;;;15.90;;
12788;SDS011;6458;42.710;23.192;2023-11-21T02:23:08;21.97;;;15.50;;
12788;SDS011;6458;42.710;23.192;2023-11-21T02:25:35;20.27;;;16.30;;
12788;SDS011;6458;42.710;23.192;2023-11-21T02:28:02;20.83;;;14.80;;
12788;SDS011;6458;42.710;23.192;2023-11-21T02:30:31;18.27;;;12.00;;
12788;SDS011;6458;42.710;23.192;2023-11-21T02:32:59;20.07;;;14.50;;
12788;SDS011;6458;42.710;23.192;2023-11-21T02:35:26;18.47;;;13.53;;
12788;SDS011;6458;42.710;23.192;2023-11-21T02:37:54;21.20;;;14.30;;
12788;SDS011;6458;42.710;23.192;2023-11-21T02:40:22;18.97;;;13.73;;
12788;SDS011;6458;42.710;23.192;2023-11-21T02:42:51;16.73;;;12.43;;
12788;SDS011;6458;42.710;23.192;2023-11-21T02:45:18;20.40;;;14.60;;
12788;SDS011;6458;42.710;23.192;2023-11-21T02:47:47;22.67;;;15.43;;
12788;SDS011;6458;42.710;23.192;2023-11-21T02:50:14;25.87;;;17.27;;
12788;SDS011;6458;42.710;23.192;2023-11-21T02:52:41;25.20;;;16.23;;
12788;SDS011;6458;42.710;23.192;2023-11-21T02:55:09;23.60;;;14.83;;
12788;SDS011;6458;42.710;23.192;2023-11-21T02:57:37;19.83;;;15.00;;
12788;SDS011;6458;42.710;23.192;2023-11-21T03:00:05;19.23;;;13.47;;
12788;SDS011;6458;42.710;23.192;2023-11-21T03:02:33;20.50;;;14.30;;
12788;SDS011;6458;42.710;23.192;2023-11-21T03:05:04;19.53;;;14.23;;
12788;SDS011;6458;42.710;23.192;2023-11-21T03:07:33;19.57;;;14.63;;
12788;SDS011;6458;42.710;23.192;2023-11-21T03:10:00;27.40;;;13.60;;
12788;SDS011;6458;42.710;23.192;2023-11-21T03:12:27;17.70;;;14.27;;
12788;SDS011;6458;42.710;23.192;2023-11-21T03:14:55;20.17;;;15.03;;
12788;SDS011;6458;42.710;23.192;2023-11-21T03:17:22;24.03;;;15.43;;
12788;SDS011;6458;42.710;23.192;2023-11-21T03:19:49;27.30;;;17.30;;
12788;SDS011;6458;42.710;23.192;2023-11-21T03:22:17;46.60;;;23.70;;
12788;SDS011;6458;42.710;23.192;2023-11-21T03:24:44;42.07;;;20.63;;
12788;SDS011;6458;42.710;23.192;2023-11-21T03:27:11;28.50;;;17.73;;
12788;SDS011;6458;42.710;23.192;2023-11-21T03:29:38;31.13;;;20.70;;
12788;SDS011;6458;42.710;23.192;2023-11-21T03:32:07;34.00;;;21.03;;
12788;SDS011;6458;42.710;23.192;2023-11-21T03:34:34;34.10;;;22.10;;
12788;SDS011;6458;42.710;23.192;2023-11-21T03:37:01;32.47;;;21.27;;
12788;SDS011;6458;42.710;23.192;2023-11-21T03:39:28;30.17;;;20.73;;
12788;SDS011;6458;42.710;23.192;2023-11-21T03:41:55;25.20;;;16.13;;
12788;SDS011;6458;42.710;23.192;2023-11-21T03:44:22;19.40;;;12.47;;
12788;SDS011;6458;42.710;23.192;2023-11-21T03:46:49;14.93;;;11.57;;
12788;SDS011;6458;42.710;23.192;2023-11-21T03:49:18;12.30;;;9.13;;
12788;SDS011;6458;42.710;23.192;2023-11-21T03:51:45;9.87;;;8.03;;
12788;SDS011;6458;42.710;23.192;2023-11-21T03:54:11;14.97;;;9.37;;
12788;SDS011;6458;42.710;23.192;2023-11-21T03:56:39;13.67;;;11.00;;
12788;SDS011;6458;42.710;23.192;2023-11-21T03:59:06;12.27;;;10.30;;
12788;SDS011;6458;42.710;23.192;2023-11-21T04:01:33;13.23;;;9.63;;
12788;SDS011;6458;42.710;23.192;2023-11-21T04:04:00;17.63;;;12.00;;
12788;SDS011;6458;42.710;23.192;2023-11-21T04:13:06;10.93;;;8.87;;
12788;SDS011;6458;42.710;23.192;2023-11-21T04:15:33;13.47;;;11.17;;
12788;SDS011;6458;42.710;23.192;2023-11-21T04:18:00;19.63;;;13.60;;
12788;SDS011;6458;42.710;23.192;2023-11-21T04:20:27;17.93;;;13.87;;
12788;SDS011;6458;42.710;23.192;2023-11-21T04:22:53;15.10;;;12.53;;
12788;SDS011;6458;42.710;23.192;2023-11-21T04:25:20;14.93;;;11.80;;
12788;SDS011;6458;42.710;23.192;2023-11-21T04:27:48;16.60;;;12.37;;
12788;SDS011;6458;42.710;23.192;2023-11-21T04:30:17;14.40;;;11.73;;
12788;SDS011;6458;42.710;23.192;2023-11-21T04:32:44;14.27;;;10.33;;
12788;SDS011;6458;42.710;23.192;2023-11-21T04:35:11;16.63;;;13.40;;
12788;SDS011;6458;42.710;23.192;2023-11-21T04:37:38;16.63;;;12.77;;
12788;SDS011;6458;42.710;23.192;2023-11-21T04:40:05;18.77;;;13.53;;
12788;SDS011;6458;42.710;23.192;2023-11-21T04:42:34;22.93;;;15.27;;
12788;SDS011;6458;42.710;23.192;2023-11-21T04:45:01;18.10;;;14.10;;
12788;SDS011;6458;42.710;23.192;2023-11-21T04:47:34;18.53;;;13.77;;
12788;SDS011;6458;42.710;23.192;2023-11-21T04:50:05;17.40;;;12.47;;
12788;SDS011;6458;42.710;23.192;2023-11-21T04:52:32;17.23;;;12.47;;
12788;SDS011;6458;42.710;23.192;2023-11-21T04:54:59;15.83;;;12.73;;
12788;SDS011;6458;42.710;23.192;2023-11-21T04:57:27;17.23;;;13.30;;
12788;SDS011;6458;42.710;23.192;2023-11-21T04:59:54;19.23;;;13.70;;
12788;SDS011;6458;42.710;23.192;2023-11-21T05:02:21;15.63;;;13.20;;
12788;SDS011;6458;42.710;23.192;2023-11-21T05:04:50;17.10;;;13.63;;
12788;SDS011;6458;42.710;23.192;2023-11-21T05:07:18;19.93;;;14.70;;
12788;SDS011;6458;42.710;23.192;2023-11-21T05:09:46;25.10;;;17.30;;
12788;SDS011;6458;42.710;23.192;2023-11-21T05:12:13;21.03;;;16.43;;
12788;SDS011;6458;42.710;23.192;2023-11-21T05:14:40;21.90;;;17.20;;
12788;SDS011;6458;42.710;23.192;2023-11-21T05:17:08;24.47;;;20.67;;
12788;SDS011;6458;42.710;23.192;2023-11-21T05:19:35;20.03;;;16.20;;
12788;SDS011;6458;42.710;23.192;2023-11-21T05:22:04;19.37;;;16.10;;
12788;SDS011;6458;42.710;23.192;2023-11-21T05:24:31;23.57;;;18.77;;
12788;SDS011;6458;42.710;23.192;2023-11-21T05:26:58;23.50;;;18.40;;
12788;SDS011;6458;42.710;23.192;2023-11-21T05:29:25;25.13;;;18.67;;
12788;SDS011;6458;42.710;23.192;2023-11-21T05:31:52;28.17;;;18.17;;
12788;SDS011;6458;42.710;23.192;2023-11-21T05:34:19;28.57;;;19.20;;
12788;SDS011;6458;42.710;23.192;2023-11-21T05:36:49;33.27;;;20.73;;
12788;SDS011;6458;42.710;23.192;2023-11-21T05:39:17;31.37;;;20.37;;
12788;SDS011;6458;42.710;23.192;2023-11-21T05:41:46;28.70;;;20.47;;
12788;SDS011;6458;42.710;23.192;2023-11-21T05:44:13;24.67;;;18.57;;
12788;SDS011;6458;42.710;23.192;2023-11-21T05:46:40;26.13;;;18.87;;
12788;SDS011;6458;42.710;23.192;2023-11-21T05:49:08;19.73;;;15.17;;
12788;SDS011;6458;42.710;23.192;2023-11-21T05:51:35;24.77;;;17.13;;
12788;SDS011;6458;42.710;23.192;2023-11-21T05:54:03;15.50;;;11.63;;
12788;SDS011;6458;42.710;23.192;2023-11-21T05:56:32;17.27;;;11.13;;
12788;SDS011;6458;42.710;23.192;2023-11-21T05:58:59;18.73;;;11.60;;
12788;SDS011;6458;42.710;23.192;2023-11-21T06:01:27;19.87;;;13.23;;
12788;SDS011;6458;42.710;23.192;2023-11-21T06:03:54;22.27;;;16.53;;
12788;SDS011;6458;42.710;23.192;2023-11-21T06:06:21;24.40;;;15.87;;
12788;SDS011;6458;42.710;23.192;2023-11-21T06:08:49;30.30;;;18.60;;
12788;SDS011;6458;42.710;23.192;2023-11-21T06:11:16;17.13;;;12.03;;
12788;SDS011;6458;42.710;23.192;2023-11-21T06:13:45;15.20;;;10.67;;
12788;SDS011;6458;42.710;23.192;2023-11-21T06:16:13;11.17;;;8.47;;
12788;SDS011;6458;42.710;23.192;2023-11-21T06:18:42;11.60;;;8.27;;
12788;SDS011;6458;42.710;23.192;2023-11-21T06:21:10;13.57;;;8.33;;
12788;SDS011;6458;42.710;23.192;2023-11-21T06:23:37;10.60;;;8.17;;
12788;SDS011;6458;42.710;23.192;2023-11-21T06:26:04;15.13;;;9.03;;
12788;SDS011;6458;42.710;23.192;2023-11-21T06:28:32;15.07;;;9.00;;
12788;SDS011;6458;42.710;23.192;2023-11-21T06:31:00;16.17;;;11.53;;
12788;SDS011;6458;42.710;23.192;2023-11-21T06:33:30;20.50;;;11.30;;
12788;SDS011;6458;42.710;23.192;2023-11-21T06:35:57;17.77;;;11.47;;
12788;SDS011;6458;42.710;23.192;2023-11-21T06:38:25;16.77;;;10.40;;
12788;SDS011;6458;42.710;23.192;2023-11-21T06:40:55;14.13;;;9.57;;
12788;SDS011;6458;42.710;23.192;2023-11-21T06:43:22;14.47;;;9.97;;
12788;SDS011;6458;42.710;23.192;2023-11-21T06:46:05;18.57;;;11.03;;
12788;SDS011;6458;42.710;23.192;2023-11-21T06:48:32;16.13;;;12.37;;
12788;SDS011;6458;42.710;23.192;2023-11-21T06:51:00;17.13;;;12.27;;
12788;SDS011;6458;42.710;23.192;2023-11-21T06:53:27;16.60;;;11.87;;
12788;SDS011;6458;42.710;23.192;2023-11-21T06:55:54;23.27;;;13.53;;
12788;SDS011;6458;42.710;23.192;2023-11-21T06:58:21;27.53;;;13.93;;
12788;SDS011;6458;42.710;23.192;2023-11-21T07:00:48;20.93;;;13.67;;
12788;SDS011;6458;42.710;23.192;2023-11-21T07:03:18;19.37;;;12.77;;
12788;SDS011;6458;42.710;23.192;2023-11-21T07:05:45;19.73;;;13.07;;
12788;SDS011;6458;42.710;23.192;2023-11-21T07:08:12;21.87;;;15.23;;
12788;SDS011;6458;42.710;23.192;2023-11-21T07:10:39;25.07;;;15.77;;
12788;SDS011;6458;42.710;23.192;2023-11-21T07:13:07;26.63;;;16.53;;
12788;SDS011;6458;42.710;23.192;2023-11-21T07:15:37;23.07;;;15.27;;
12788;SDS011;6458;42.710;23.192;2023-11-21T07:18:04;18.87;;;13.37;;
12788;SDS011;6458;42.710;23.192;2023-11-21T07:20:34;20.37;;;14.43;;
12788;SDS011;6458;42.710;23.192;2023-11-21T07:23:01;21.40;;;14.83;;
12788;SDS011;6458;42.710;23.192;2023-11-21T07:25:29;21.53;;;13.77;;
12788;SDS011;6458;42.710;23.192;2023-11-21T07:27:57;21.70;;;12.90;;
12788;SDS011;6458;42.710;23.192;2023-11-21T07:30:24;25.30;;;12.97;;
12788;SDS011;6458;42.710;23.192;2023-11-21T07:32:51;18.00;;;11.30;;
12788;SDS011;6458;42.710;23.192;2023-11-21T07:35:18;19.63;;;12.57;;
12788;SDS011;6458;42.710;23.192;2023-11-21T07:37:46;15.73;;;11.53;;
12788;SDS011;6458;42.710;23.192;2023-11-21T07:40:14;21.53;;;13.73;;
12788;SDS011;6458;42.710;23.192;2023-11-21T07:42:42;18.97;;;13.30;;
12788;SDS011;6458;42.710;23.192;2023-11-21T07:45:09;19.40;;;13.40;;
12788;SDS011;6458;42.710;23.192;2023-11-21T07:47:36;19.07;;;14.00;;
12788;SDS011;6458;42.710;23.192;2023-11-21T07:50:04;19.23;;;14.03;;
12788;SDS011;6458;42.710;23.192;2023-11-21T07:52:32;23.77;;;15.30;;
12788;SDS011;6458;42.710;23.192;2023-11-21T07:55:01;20.00;;;14.63;;
12788;SDS011;6458;42.710;23.192;2023-11-21T07:57:28;25.27;;;14.20;;
12788;SDS011;6458;42.710;23.192;2023-11-21T07:59:55;21.23;;;13.83;;
12788;SDS011;6458;42.710;23.192;2023-11-21T08:02:22;18.83;;;13.47;;
12788;SDS011;6458;42.710;23.192;2023-11-21T08:04:52;21.27;;;13.70;;
12788;SDS011;6458;42.710;23.192;2023-11-21T08:07:25;16.53;;;13.07;;
12788;SDS011;6458;42.710;23.192;2023-11-21T08:09:52;15.07;;;12.37;;
12788;SDS011;6458;42.710;23.192;2023-11-21T08:12:25;18.80;;;13.83;;
12788;SDS011;6458;42.710;23.192;2023-11-21T08:14:52;21.73;;;14.10;;
12788;SDS011;6458;42.710;23.192;2023-11-21T08:17:20;18.83;;;13.43;;
12788;SDS011;6458;42.710;23.192;2023-11-21T08:19:46;20.23;;;15.23;;
12788;SDS011;6458;42.710;23.192;2023-11-21T08:22:14;22.23;;;15.90;;
12788;SDS011;6458;42.710;23.192;2023-11-21T08:24:43;25.23;;;15.10;;
12788;SDS011;6458;42.710;23.192;2023-11-21T08:27:11;26.53;;;14.30;;
12788;SDS011;6458;42.710;23.192;2023-11-21T08:29:42;22.70;;;15.33;;
12788;SDS011;6458;42.710;23.192;2023-11-21T08:32:09;57.70;;;30.00;;
12788;SDS011;6458;42.710;23.192;2023-11-21T08:34:36;36.33;;;22.60;;
12788;SDS011;6458;42.710;23.192;2023-11-21T08:37:05;27.70;;;18.63;;
12788;SDS011;6458;42.710;23.192;2023-11-21T08:39:32;18.13;;;15.30;;
12788;SDS011;6458;42.710;23.192;2023-11-21T08:41:58;21.93;;;16.07;;
12788;SDS011;6458;42.710;23.192;2023-11-21T08:44:25;18.33;;;14.00;;
12788;SDS011;6458;42.710;23.192;2023-11-21T08:46:54;21.63;;;14.70;;
12788;SDS011;6458;42.710;23.192;2023-11-21T08:49:21;18.87;;;13.20;;
12788;SDS011;6458;42.710;23.192;2023-11-21T08:51:48;17.47;;;12.93;;
12788;SDS011;6458;42.710;23.192;2023-11-21T08:54:15;18.20;;;12.03;;
12788;SDS011;6458;42.710;23.192;2023-11-21T08:56:43;18.10;;;13.07;;
12788;SDS011;6458;42.710;23.192;2023-11-21T08:59:10;16.23;;;12.67;;
12788;SDS011;6458;42.710;23.192;2023-11-21T09:01:39;13.87;;;11.07;;
12788;SDS011;6458;42.710;23.192;2023-11-21T09:04:08;16.53;;;11.10;;
12788;SDS011;6458;42.710;23.192;2023-11-21T09:06:35;15.47;;;11.00;;
12788;SDS011;6458;42.710;23.192;2023-11-21T09:09:02;17.17;;;11.33;;
12788;SDS011;6458;42.710;23.192;2023-11-21T09:11:31;14.50;;;10.60;;
12788;SDS011;6458;42.710;23.192;2023-11-21T09:13:58;13.33;;;10.37;;
12788;SDS011;6458;42.710;23.192;2023-11-21T09:16:26;12.67;;;10.47;;
12788;SDS011;6458;42.710;23.192;2023-11-21T09:18:53;14.03;;;10.37;;
12788;SDS011;6458;42.710;23.192;2023-11-21T09:21:21;11.20;;;9.97;;
12788;SDS011;6458;42.710;23.192;2023-11-21T09:23:48;14.83;;;10.40;;
12788;SDS011;6458;42.710;23.192;2023-11-21T09:26:15;15.43;;;10.93;;
12788;SDS011;6458;42.710;23.192;2023-11-21T09:28:43;17.80;;;11.13;;
12788;SDS011;6458;42.710;23.192;2023-11-21T09:31:12;15.70;;;11.63;;
12788;SDS011;6458;42.710;23.192;2023-11-21T09:33:41;14.10;;;10.73;;
12788;SDS011;6458;42.710;23.192;2023-11-21T09:36:11;15.90;;;11.20;;
12788;SDS011;6458;42.710;23.192;2023-11-21T09:38:40;15.50;;;12.03;;
12788;SDS011;6458;42.710;23.192;2023-11-21T09:41:10;19.43;;;14.23;;
12788;SDS011;6458;42.710;23.192;2023-11-21T09:43:42;20.70;;;15.60;;
12788;SDS011;6458;42.710;23.192;2023-11-21T09:46:12;24.87;;;16.93;;
12788;SDS011;6458;42.710;23.192;2023-11-21T09:48:45;22.93;;;16.93;;
12788;SDS011;6458;42.710;23.192;2023-11-21T09:51:18;26.90;;;18.73;;
12788;SDS011;6458;42.710;23.192;2023-11-21T09:53:49;25.70;;;18.93;;
12788;SDS011;6458;42.710;23.192;2023-11-21T09:56:18;25.23;;;17.70;;
12788;SDS011;6458;42.710;23.192;2023-11-21T09:58:50;25.60;;;18.20;;
12788;SDS011;6458;42.710;23.192;2023-11-21T10:01:18;24.30;;;18.30;;
12788;SDS011;6458;42.710;23.192;2023-11-21T10:03:47;29.33;;;18.90;;
12788;SDS011;6458;42.710;23.192;2023-11-21T10:06:14;33.73;;;21.03;;
12788;SDS011;6458;42.710;23.192;2023-11-21T10:08:43;29.17;;;20.77;;
12788;SDS011;6458;42.710;23.192;2023-11-21T10:11:12;30.47;;;20.63;;
12788;SDS011;6458;42.710;23.192;2023-11-21T10:13:41;30.53;;;22.57;;
12788;SDS011;6458;42.710;23.192;2023-11-21T10:16:11;29.80;;;23.77;;
12788;SDS011;6458;42.710;23.192;2023-11-21T10:18:42;30.27;;;23.97;;
12788;SDS011;6458;42.710;23.192;2023-11-21T10:21:11;34.20;;;25.87;;
12788;SDS011;6458;42.710;23.192;2023-11-21T10:23:38;32.57;;;25.83;;
12788;SDS011;6458;42.710;23.192;2023-11-21T10:26:06;35.80;;;26.63;;
12788;SDS011;6458;42.710;23.192;2023-11-21T10:28:42;37.03;;;28.87;;
12788;SDS011;6458;42.710;23.192;2023-11-21T10:31:22;39.20;;;25.83;;
12788;SDS011;6458;42.710;23.192;2023-11-21T10:33:49;33.10;;;26.10;;
12788;SDS011;6458;42.710;23.192;2023-11-21T10:36:24;34.07;;;25.20;;
12788;SDS011;6458;42.710;23.192;2023-11-21T10:38:52;32.80;;;25.80;;
12788;SDS011;6458;42.710;23.192;2023-11-21T10:41:19;39.50;;;30.50;;
12788;SDS011;6458;42.710;23.192;2023-11-21T10:43:48;32.03;;;25.40;;
12788;SDS011;6458;42.710;23.192;2023-11-21T10:46:15;36.20;;;23.83;;
12788;SDS011;6458;42.710;23.192;2023-11-21T10:48:42;29.60;;;24.80;;
12788;SDS011;6458;42.710;23.192;2023-11-21T10:51:09;36.07;;;25.63;;
12788;SDS011;6458;42.710;23.192;2023-11-21T10:53:38;33.17;;;25.87;;
12788;SDS011;6458;42.710;23.192;2023-11-21T10:56:06;33.80;;;24.20;;
12788;SDS011;6458;42.710;23.192;2023-11-21T10:58:42;31.80;;;24.20;;
12788;SDS011;6458;42.710;23.192;2023-11-21T11:01:11;32.47;;;24.37;;
12788;SDS011;6458;42.710;23.192;2023-11-21T11:03:39;34.67;;;24.30;;
12788;SDS011;6458;42.710;23.192;2023-11-21T11:06:07;33.13;;;23.40;;
12788;SDS011;6458;42.710;23.192;2023-11-21T11:08:36;30.03;;;24.33;;
12788;SDS011;6458;42.710;23.192;2023-11-21T11:11:04;35.03;;;24.93;;
12788;SDS011;6458;42.710;23.192;2023-11-21T11:13:31;30.30;;;23.60;;
12788;SDS011;6458;42.710;23.192;2023-11-21T11:15:59;32.87;;;24.87;;
12788;SDS011;6458;42.710;23.192;2023-11-21T11:18:30;33.53;;;23.77;;
12788;SDS011;6458;42.710;23.192;2023-11-21T11:20:58;28.97;;;22.73;;
12788;SDS011;6458;42.710;23.192;2023-11-21T11:23:37;26.87;;;21.43;;
12788;SDS011;6458;42.710;23.192;2023-11-21T11:26:22;30.63;;;21.40;;
12788;SDS011;6458;42.710;23.192;2023-11-21T11:31:48;29.83;;;20.93;;
12788;SDS011;6458;42.710;23.192;2023-11-21T11:34:32;32.23;;;21.77;;
12788;SDS011;6458;42.710;23.192;2023-11-21T11:37:03;28.97;;;21.07;;
12788;SDS011;6458;42.710;23.192;2023-11-21T11:39:35;28.73;;;22.67;;
12788;SDS011;6458;42.710;23.192;2023-11-21T11:42:03;31.67;;;22.67;;
12788;SDS011;6458;42.710;23.192;2023-11-21T11:44:49;28.80;;;21.43;;
12788;SDS011;6458;42.710;23.192;2023-11-21T11:47:20;28.63;;;22.03;;
12788;SDS011;6458;42.710;23.192;2023-11-21T11:49:57;28.83;;;19.57;;
12788;SDS011;6458;42.710;23.192;2023-11-21T11:52:32;24.33;;;19.37;;
12788;SDS011;6458;42.710;23.192;2023-11-21T11:55:05;30.50;;;21.73;;
12788;SDS011;6458;42.710;23.192;2023-11-21T11:57:35;27.77;;;19.77;;
12788;SDS011;6458;42.710;23.192;2023-11-21T12:00:13;26.53;;;19.00;;
12788;SDS011;6458;42.710;23.192;2023-11-21T12:02:46;23.57;;;16.43;;
12788;SDS011;6458;42.710;23.192;2023-11-21T12:05:16;24.57;;;15.00;;
12788;SDS011;6458;42.710;23.192;2023-11-21T12:07:45;19.67;;;14.67;;
12788;SDS011;6458;42.710;23.192;2023-11-21T12:10:16;18.23;;;13.07;;
12788;SDS011;6458;42.710;23.192;2023-11-21T12:12:47;20.40;;;14.30;;
12788;SDS011;6458;42.710;23.192;2023-11-21T12:15:15;15.20;;;11.33;;
12788;SDS011;6458;42.710;23.192;2023-11-21T12:17:44;11.67;;;10.37;;
12788;SDS011;6458;42.710;23.192;2023-11-21T12:20:12;17.33;;;10.13;;
12788;SDS011;6458;42.710;23.192;2023-11-21T12:22:45;9.03;;;8.13;;
12788;SDS011;6458;42.710;23.192;2023-11-21T12:25:16;9.27;;;8.33;;
12788;SDS011;6458;42.710;23.192;2023-11-21T12:27:45;17.70;;;12.13;;
12788;SDS011;6458;42.710;23.192;2023-11-21T12:30:14;18.97;;;12.33;;
12788;SDS011;6458;42.710;23.192;2023-11-21T12:32:42;17.23;;;11.30;;
12788;SDS011;6458;42.710;23.192;2023-11-21T12:35:12;12.87;;;9.27;;
12788;SDS011;6458;42.710;23.192;2023-11-21T12:37:39;11.87;;;8.17;;
12788;SDS011;6458;42.710;23.192;2023-11-21T12:40:10;12.33;;;9.57;;
12788;SDS011;6458;42.710;23.192;2023-11-21T12:42:41;16.97;;;11.03;;
12788;SDS011;6458;42.710;23.192;2023-11-21T12:45:18;16.03;;;10.03;;
12788;SDS011;6458;42.710;23.192;2023-11-21T12:47:47;12.60;;;11.03;;
12788;SDS011;6458;42.710;23.192;2023-11-21T12:50:15;15.63;;;12.00;;
12788;SDS011;6458;42.710;23.192;2023-11-21T12:52:48;16.00;;;11.10;;
12788;SDS011;6458;42.710;23.192;2023-11-21T12:55:20;21.10;;;13.17;;
12788;SDS011;6458;42.710;23.192;2023-11-21T12:57:48;16.00;;;11.43;;
12788;SDS011;6458;42.710;23.192;2023-11-21T13:00:17;14.90;;;11.40;;
12788;SDS011;6458;42.710;23.192;2023-11-21T13:02:55;15.57;;;10.07;;
12788;SDS011;6458;42.710;23.192;2023-11-21T13:05:26;13.57;;;9.70;;
12788;SDS011;6458;42.710;23.192;2023-11-21T13:07:54;13.73;;;10.90;;
12788;SDS011;6458;42.710;23.192;2023-11-21T13:10:25;22.53;;;17.77;;
12788;SDS011;6458;42.710;23.192;2023-11-21T13:12:56;19.67;;;11.30;;
12788;SDS011;6458;42.710;23.192;2023-11-21T13:15:25;14.30;;;11.03;;
12788;SDS011;6458;42.710;23.192;2023-11-21T13:17:56;16.13;;;10.90;;
12788;SDS011;6458;42.710;23.192;2023-11-21T13:20:23;15.83;;;11.00;;
12788;SDS011;6458;42.710;23.192;2023-11-21T13:22:51;15.07;;;10.50;;
12788;SDS011;6458;42.710;23.192;2023-11-21T13:25:22;17.33;;;11.17;;
12788;SDS011;6458;42.710;23.192;2023-11-21T13:27:52;16.30;;;11.87;;
12788;SDS011;6458;42.710;23.192;2023-11-21T13:30:19;15.30;;;10.50;;
12788;SDS011;6458;42.710;23.192;2023-11-21T13:32:51;11.87;;;9.90;;
12788;SDS011;6458;42.710;23.192;2023-11-21T13:35:18;15.90;;;10.47;;
12788;SDS011;6458;42.710;23.192;2023-11-21T13:37:56;13.20;;;9.30;;
12788;SDS011;6458;42.710;23.192;2023-11-21T13:40:26;13.60;;;9.10;;
12788;SDS011;6458;42.710;23.192;2023-11-21T13:42:53;17.07;;;10.87;;
12788;SDS011;6458;42.710;23.192;2023-11-21T13:45:23;11.67;;;10.03;;
12788;SDS011;6458;42.710;23.192;2023-11-21T13:47:51;13.63;;;9.43;;
12788;SDS011;6458;42.710;23.192;2023-11-21T13:50:23;12.20;;;9.83;;
12788;SDS011;6458;42.710;23.192;2023-11-21T14:00:26;17.90;;;9.80;;
12788;SDS011;6458;42.710;23.192;2023-11-21T14:03:07;12.20;;;9.43;;
12788;SDS011;6458;42.710;23.192;2023-11-21T14:05:42;13.17;;;9.37;;
12788;SDS011;6458;42.710;23.192;2023-11-21T14:08:11;15.70;;;9.70;;
12788;SDS011;6458;42.710;23.192;2023-11-21T14:10:42;11.43;;;9.17;;
12788;SDS011;6458;42.710;23.192;2023-11-21T14:13:10;14.40;;;9.97;;
12788;SDS011;6458;42.710;23.192;2023-11-21T14:15:40;15.03;;;11.43;;
12788;SDS011;6458;42.710;23.192;2023-11-21T14:18:10;19.73;;;12.93;;
12788;SDS011;6458;42.710;23.192;2023-11-21T14:20:39;19.23;;;13.17;;
12788;SDS011;6458;42.710;23.192;2023-11-21T14:23:07;15.40;;;12.53;;
12788;SDS011;6458;42.710;23.192;2023-11-21T14:25:35;16.03;;;11.87;;
12788;SDS011;6458;42.710;23.192;2023-11-21T14:28:04;20.73;;;11.43;;
12788;SDS011;6458;42.710;23.192;2023-11-21T14:30:31;20.23;;;13.33;;
12788;SDS011;6458;42.710;23.192;2023-11-21T14:33:02;22.53;;;14.50;;
12788;SDS011;6458;42.710;23.192;2023-11-21T14:35:29;17.40;;;12.97;;
12788;SDS011;6458;42.710;23.192;2023-11-21T14:37:57;22.57;;;14.13;;
12788;SDS011;6458;42.710;23.192;2023-11-21T14:40:25;24.13;;;14.77;;
12788;SDS011;6458;42.710;23.192;2023-11-21T14:42:58;23.03;;;15.07;;
12788;SDS011;6458;42.710;23.192;2023-11-21T14:45:25;22.27;;;16.03;;
12788;SDS011;6458;42.710;23.192;2023-11-21T14:47:54;37.33;;;22.13;;